sensor_id;sensor_type;location;lat;lon;timestamp;pressure;altitude;pressure_sealevel;temperature;humidity
63281;BME280;49406;51.044;3.766;2022-09-09T00:01:03;100851.08;;;13.44;100.00
63281;BME280;49406;51.044;3.766;2022-09-09T00:03:47;100848.45;;;13.46;100.00
63281;BME280;49406;51.044;3.766;2022-09-09T00:06:26;100845.97;;;13.48;100.00
63281;BME280;49406;51.044;3.766;2022-09-09T00:09:02;100839.98;;;13.50;100.00
63281;BME280;49406;51.044;3.766;2022-09-09T00:11:47;100837.17;;;13.51;100.00
63281;BME280;49406;51.044;3.766;2022-09-09T00:14:29;100832.95;;;13.52;100.00
63281;BME280;49406;51.044;3.766;2022-09-09T00:17:12;100828.55;;;13.54;100.00
63281;BME280;49406;51.044;3.766;2022-09-09T00:19:52;100823.10;;;13.56;100.00
63281;BME280;49406;51.044;3.766;2022-09-09T00:22:31;100824.48;;;13.58;100.00
63281;BME280;49406;51.044;3.766;2022-09-09T00:25:12;100820.81;;;13.61;100.00
63281;BME280;49406;51.044;3.766;2022-09-09T00:27:50;100818.00;;;13.62;100.00
63281;BME280;49406;51.044;3.766;2022-09-09T00:30:26;100816.23;;;13.62;100.00
63281;BME280;49406;51.044;3.766;2022-09-09T00:33:08;100817.30;;;13.62;100.00
63281;BME280;49406;51.044;3.766;2022-09-09T00:35:46;100814.99;;;13.60;100.00
63281;BME280;49406;51.044;3.766;2022-09-09T00:38:26;100809.40;;;13.55;100.00
63281;BME280;49406;51.044;3.766;2022-09-09T00:41:07;100803.45;;;13.51;100.00
63281;BME280;49406;51.044;3.766;2022-09-09T00:43:49;100804.70;;;13.47;100.00
63281;BME280;49406;51.044;3.766;2022-09-09T00:46:44;100804.71;;;13.44;100.00
63281;BME280;49406;51.044;3.766;2022-09-09T00:49:32;100804.89;;;13.42;100.00
63281;BME280;49406;51.044;3.766;2022-09-09T00:52:23;100802.44;;;13.40;100.00
63281;BME280;49406;51.044;3.766;2022-09-09T00:55:07;100799.81;;;13.39;100.00
63281;BME280;49406;51.044;3.766;2022-09-09T00:57:46;100795.42;;;13.37;100.00
63281;BME280;49406;51.044;3.766;2022-09-09T01:00:27;100788.41;;;13.37;100.00
63281;BME280;49406;51.044;3.766;2022-09-09T01:03:17;100784.01;;;13.37;100.00
63281;BME280;49406;51.044;3.766;2022-09-09T01:06:02;100778.73;;;13.39;100.00
63281;BME280;49406;51.044;3.766;2022-09-09T01:08:47;100776.98;;;13.40;100.00
63281;BME280;49406;51.044;3.766;2022-09-09T01:11:29;100772.04;;;13.42;100.00
63281;BME280;49406;51.044;3.766;2022-09-09T01:14:16;100769.94;;;13.42;100.00
63281;BME280;49406;51.044;3.766;2022-09-09T01:16:58;100760.27;;;13.42;100.00
63281;BME280;49406;51.044;3.766;2022-09-09T01:19:44;100757.13;;;13.41;100.00
63281;BME280;49406;51.044;3.766;2022-09-09T01:22:28;100753.63;;;13.38;100.00
63281;BME280;49406;51.044;3.766;2022-09-09T01:25:21;100755.94;;;13.35;100.00
63281;BME280;49406;51.044;3.766;2022-09-09T01:27:57;100759.98;;;13.32;100.00
63281;BME280;49406;51.044;3.766;2022-09-09T01:30:37;100761.77;;;13.29;100.00
63281;BME280;49406;51.044;3.766;2022-09-09T01:33:15;100754.39;;;13.27;100.00
63281;BME280;49406;51.044;3.766;2022-09-09T01:35:52;100754.74;;;13.23;100.00
63281;BME280;49406;51.044;3.766;2022-09-09T01:38:29;100748.09;;;13.19;100.00
63281;BME280;49406;51.044;3.766;2022-09-09T01:41:05;100748.45;;;13.16;100.00
63281;BME280;49406;51.044;3.766;2022-09-09T01:43:39;100745.12;;;13.13;100.00
63281;BME280;49406;51.044;3.766;2022-09-09T01:46:14;100744.60;;;13.11;100.00
63281;BME280;49406;51.044;3.766;2022-09-09T01:48:49;100741.61;;;13.10;100.00
63281;BME280;49406;51.044;3.766;2022-09-09T01:51:24;100743.02;;;13.11;100.00
63281;BME280;49406;51.044;3.766;2022-09-09T01:53:59;100741.96;;;13.10;100.00
63281;BME280;49406;51.044;3.766;2022-09-09T01:56:43;100743.53;;;13.10;100.00
63281;BME280;49406;51.044;3.766;2022-09-09T01:59:28;100747.39;;;13.10;100.00
63281;BME280;49406;51.044;3.766;2022-09-09T02:02:13;100747.76;;;13.10;100.00
63281;BME280;49406;51.044;3.766;2022-09-09T02:04:54;100746.34;;;13.10;100.00
63281;BME280;49406;51.044;3.766;2022-09-09T02:07:39;100750.73;;;13.09;100.00
63281;BME280;49406;51.044;3.766;2022-09-09T02:10:20;100751.95;;;13.09;100.00
63281;BME280;49406;51.044;3.766;2022-09-09T02:12:58;100750.73;;;13.10;100.00
63281;BME280;49406;51.044;3.766;2022-09-09T02:15:38;100749.86;;;13.11;100.00
63281;BME280;49406;51.044;3.766;2022-09-09T02:18:17;100747.59;;;13.11;100.00
63281;BME280;49406;51.044;3.766;2022-09-09T02:20:55;100747.40;;;13.14;100.00
63281;BME280;49406;51.044;3.766;2022-09-09T02:23:31;100751.42;;;13.16;100.00
63281;BME280;49406;51.044;3.766;2022-09-09T02:26:07;100747.58;;;13.19;100.00
63281;BME280;49406;51.044;3.766;2022-09-09T02:28:43;100747.71;;;13.25;100.00
63281;BME280;49406;51.044;3.766;2022-09-09T02:31:20;100745.42;;;13.31;100.00
63281;BME280;49406;51.044;3.766;2022-09-09T02:33:58;100742.23;;;13.37;100.00
63281;BME280;49406;51.044;3.766;2022-09-09T02:36:37;100740.27;;;13.44;100.00
63281;BME280;49406;51.044;3.766;2022-09-09T02:39:13;100739.35;;;13.51;100.00
63281;BME280;49406;51.044;3.766;2022-09-09T02:41:48;100737.89;;;13.59;100.00
63281;BME280;49406;51.044;3.766;2022-09-09T02:44:22;100738.41;;;13.63;100.00
63281;BME280;49406;51.044;3.766;2022-09-09T02:47:10;100744.38;;;13.64;100.00
63281;BME280;49406;51.044;3.766;2022-09-09T02:49:57;100741.20;;;13.66;100.00
63281;BME280;49406;51.044;3.766;2022-09-09T02:52:42;100741.88;;;13.70;100.00
63281;BME280;49406;51.044;3.766;2022-09-09T02:55:23;100741.67;;;13.73;100.00
63281;BME280;49406;51.044;3.766;2022-09-09T02:57:59;100739.89;;;13.75;100.00
63281;BME280;49406;51.044;3.766;2022-09-09T03:00:35;100740.77;;;13.75;100.00
63281;BME280;49406;51.044;3.766;2022-09-09T03:03:10;100740.43;;;13.77;100.00
63281;BME280;49406;51.044;3.766;2022-09-09T03:05:44;100731.81;;;13.79;100.00
63281;BME280;49406;51.044;3.766;2022-09-09T03:08:19;100730.91;;;13.81;100.00
63281;BME280;49406;51.044;3.766;2022-09-09T03:10:55;100728.61;;;13.83;100.00
63281;BME280;49406;51.044;3.766;2022-09-09T03:13:29;100727.91;;;13.82;100.00
63281;BME280;49406;51.044;3.766;2022-09-09T03:16:05;100730.02;;;13.83;100.00
63281;BME280;49406;51.044;3.766;2022-09-09T03:18:39;100728.95;;;13.84;100.00
63281;BME280;49406;51.044;3.766;2022-09-09T03:21:14;100734.21;;;13.86;100.00
63281;BME280;49406;51.044;3.766;2022-09-09T03:23:48;100737.35;;;13.88;100.00
63281;BME280;49406;51.044;3.766;2022-09-09T03:26:23;100732.42;;;13.88;100.00
63281;BME280;49406;51.044;3.766;2022-09-09T03:28:57;100735.59;;;13.90;100.00
63281;BME280;49406;51.044;3.766;2022-09-09T03:31:33;100737.84;;;13.93;100.00
63281;BME280;49406;51.044;3.766;2022-09-09T03:34:09;100727.11;;;13.97;100.00
63281;BME280;49406;51.044;3.766;2022-09-09T03:36:43;100722.32;;;14.02;100.00
63281;BME280;49406;51.044;3.766;2022-09-09T03:39:18;100720.02;;;14.04;100.00
63281;BME280;49406;51.044;3.766;2022-09-09T03:41:52;100712.42;;;14.06;100.00
63281;BME280;49406;51.044;3.766;2022-09-09T03:44:27;100703.79;;;14.08;100.00
63281;BME280;49406;51.044;3.766;2022-09-09T03:47:01;100701.33;;;14.10;100.00
63281;BME280;49406;51.044;3.766;2022-09-09T03:49:35;100691.30;;;14.12;100.00
63281;BME280;49406;51.044;3.766;2022-09-09T03:52:11;100689.70;;;14.15;100.00
63281;BME280;49406;51.044;3.766;2022-09-09T03:54:45;100689.66;;;14.18;100.00
63281;BME280;49406;51.044;3.766;2022-09-09T03:57:19;100686.83;;;14.19;100.00
63281;BME280;49406;51.044;3.766;2022-09-09T03:59:54;100684.89;;;14.21;100.00
63281;BME280;49406;51.044;3.766;2022-09-09T04:02:29;100679.60;;;14.22;100.00
63281;BME280;49406;51.044;3.766;2022-09-09T04:05:04;100687.85;;;14.23;100.00
63281;BME280;49406;51.044;3.766;2022-09-09T04:07:40;100678.70;;;14.23;100.00
63281;BME280;49406;51.044;3.766;2022-09-09T04:10:14;100683.95;;;14.26;100.00
63281;BME280;49406;51.044;3.766;2022-09-09T04:12:49;100677.27;;;14.25;100.00
63281;BME280;49406;51.044;3.766;2022-09-09T04:15:25;100683.23;;;14.27;100.00
63281;BME280;49406;51.044;3.766;2022-09-09T04:18:00;100677.63;;;14.28;100.00
63281;BME280;49406;51.044;3.766;2022-09-09T04:20:35;100676.04;;;14.28;100.00
63281;BME280;49406;51.044;3.766;2022-09-09T04:23:09;100665.48;;;14.29;100.00
63281;BME280;49406;51.044;3.766;2022-09-09T04:25:49;100665.12;;;14.30;100.00
63281;BME280;49406;51.044;3.766;2022-09-09T04:28:25;100667.41;;;14.29;100.00
63281;BME280;49406;51.044;3.766;2022-09-09T04:31:05;100666.70;;;14.30;100.00
63281;BME280;49406;51.044;3.766;2022-09-09T04:33:40;100671.59;;;14.33;100.00
63281;BME280;49406;51.044;3.766;2022-09-09T04:36:15;100674.39;;;14.34;100.00
63281;BME280;49406;51.044;3.766;2022-09-09T04:38:49;100674.35;;;14.37;100.00
63281;BME280;49406;51.044;3.766;2022-09-09T04:41:24;100670.80;;;14.40;100.00
63281;BME280;49406;51.044;3.766;2022-09-09T04:43:58;100665.13;;;14.43;100.00
63281;BME280;49406;51.044;3.766;2022-09-09T04:46:33;100664.25;;;14.43;100.00
63281;BME280;49406;51.044;3.766;2022-09-09T04:49:08;100659.69;;;14.42;100.00
63281;BME280;49406;51.044;3.766;2022-09-09T04:51:42;100659.88;;;14.44;100.00
63281;BME280;49406;51.044;3.766;2022-09-09T04:54:17;100659.52;;;14.43;100.00
63281;BME280;49406;51.044;3.766;2022-09-09T04:56:52;100658.47;;;14.44;100.00
63281;BME280;49406;51.044;3.766;2022-09-09T04:59:28;100663.75;;;14.46;100.00
63281;BME280;49406;51.044;3.766;2022-09-09T05:02:03;100661.64;;;14.47;100.00
63281;BME280;49406;51.044;3.766;2022-09-09T05:04:37;100661.64;;;14.43;100.00
63281;BME280;49406;51.044;3.766;2022-09-09T05:07:12;100656.90;;;14.40;100.00
63281;BME280;49406;51.044;3.766;2022-09-09T05:09:47;100663.23;;;14.40;100.00
63281;BME280;49406;51.044;3.766;2022-09-09T05:12:22;100663.05;;;14.40;100.00
63281;BME280;49406;51.044;3.766;2022-09-09T05:14:57;100657.59;;;14.42;100.00
63281;BME280;49406;51.044;3.766;2022-09-09T05:17:31;100656.02;;;14.45;100.00
63281;BME280;49406;51.044;3.766;2022-09-09T05:20:08;100651.60;;;14.48;100.00
63281;BME280;49406;51.044;3.766;2022-09-09T05:22:42;100648.39;;;14.51;100.00
63281;BME280;49406;51.044;3.766;2022-09-09T05:25:17;100649.75;;;14.55;100.00
63281;BME280;49406;51.044;3.766;2022-09-09T05:27:52;100649.36;;;14.57;100.00
63281;BME280;49406;51.044;3.766;2022-09-09T05:30:28;100647.58;;;14.61;100.00
63281;BME280;49406;51.044;3.766;2022-09-09T05:33:02;100645.61;;;14.64;100.00
63281;BME280;49406;51.044;3.766;2022-09-09T05:35:37;100643.64;;;14.67;100.00
63281;BME280;49406;51.044;3.766;2022-09-09T05:38:12;100642.38;;;14.68;100.00
63281;BME280;49406;51.044;3.766;2022-09-09T05:40:49;100644.67;;;14.68;100.00
63281;BME280;49406;51.044;3.766;2022-09-09T05:43:25;100645.95;;;14.65;100.00
63281;BME280;49406;51.044;3.766;2022-09-09T05:46:04;100647.38;;;14.64;100.00
63281;BME280;49406;51.044;3.766;2022-09-09T05:48:41;100643.66;;;14.65;100.00
63281;BME280;49406;51.044;3.766;2022-09-09T05:51:18;100643.63;;;14.67;100.00
63281;BME280;49406;51.044;3.766;2022-09-09T05:53:53;100642.14;;;14.74;100.00
63281;BME280;49406;51.044;3.766;2022-09-09T05:56:31;100642.97;;;14.79;100.00
63281;BME280;49406;51.044;3.766;2022-09-09T05:59:06;100640.80;;;14.84;100.00
63281;BME280;49406;51.044;3.766;2022-09-09T06:01:41;100637.20;;;14.88;100.00
63281;BME280;49406;51.044;3.766;2022-09-09T06:04:15;100640.84;;;14.93;100.00
63281;BME280;49406;51.044;3.766;2022-09-09T06:06:50;100643.27;;;14.96;100.00
63281;BME280;49406;51.044;3.766;2022-09-09T06:09:24;100647.41;;;15.02;100.00
63281;BME280;49406;51.044;3.766;2022-09-09T06:11:59;100649.34;;;15.03;100.00
63281;BME280;49406;51.044;3.766;2022-09-09T06:14:34;100651.05;;;15.05;100.00
63281;BME280;49406;51.044;3.766;2022-09-09T06:17:08;100652.46;;;15.06;100.00
63281;BME280;49406;51.044;3.766;2022-09-09T06:19:42;100652.69;;;15.02;100.00
63281;BME280;49406;51.044;3.766;2022-09-09T06:22:17;100649.10;;;14.95;100.00
63281;BME280;49406;51.044;3.766;2022-09-09T06:24:51;100649.70;;;14.89;100.00
63281;BME280;49406;51.044;3.766;2022-09-09T06:27:28;100642.04;;;14.83;100.00
63281;BME280;49406;51.044;3.766;2022-09-09T06:30:03;100641.55;;;14.80;100.00
63281;BME280;49406;51.044;3.766;2022-09-09T06:32:37;100632.77;;;14.78;100.00
63281;BME280;49406;51.044;3.766;2022-09-09T06:35:12;100634.00;;;14.77;100.00
63281;BME280;49406;51.044;3.766;2022-09-09T06:37:47;100630.83;;;14.77;100.00
63281;BME280;49406;51.044;3.766;2022-09-09T06:40:21;100630.48;;;14.77;100.00
63281;BME280;49406;51.044;3.766;2022-09-09T06:42:56;100624.66;;;14.80;100.00
63281;BME280;49406;51.044;3.766;2022-09-09T06:45:33;100626.89;;;14.84;100.00
63281;BME280;49406;51.044;3.766;2022-09-09T06:48:09;100623.98;;;14.89;100.00
63281;BME280;49406;51.044;3.766;2022-09-09T06:50:44;100623.20;;;14.97;100.00
63281;BME280;49406;51.044;3.766;2022-09-09T06:53:19;100619.75;;;15.04;100.00
63281;BME280;49406;51.044;3.766;2022-09-09T06:55:54;100621.06;;;15.11;100.00
63281;BME280;49406;51.044;3.766;2022-09-09T06:58:29;100620.78;;;15.18;100.00
63281;BME280;49406;51.044;3.766;2022-09-09T07:01:06;100620.83;;;15.28;100.00
63281;BME280;49406;51.044;3.766;2022-09-09T07:03:41;100619.28;;;15.37;100.00
63281;BME280;49406;51.044;3.766;2022-09-09T07:06:17;100615.05;;;15.49;100.00
63281;BME280;49406;51.044;3.766;2022-09-09T07:08:53;100612.72;;;15.63;100.00
63281;BME280;49406;51.044;3.766;2022-09-09T07:11:30;100612.64;;;15.80;100.00
63281;BME280;49406;51.044;3.766;2022-09-09T07:14:05;100608.11;;;15.97;100.00
63281;BME280;49406;51.044;3.766;2022-09-09T07:16:40;100607.66;;;16.11;100.00
63281;BME280;49406;51.044;3.766;2022-09-09T07:19:15;100611.15;;;16.15;100.00
63281;BME280;49406;51.044;3.766;2022-09-09T07:21:50;100609.42;;;16.12;100.00
63281;BME280;49406;51.044;3.766;2022-09-09T07:24:24;100602.08;;;16.08;100.00
63281;BME280;49406;51.044;3.766;2022-09-09T07:27:03;100600.10;;;16.11;100.00
63281;BME280;49406;51.044;3.766;2022-09-09T07:29:39;100595.77;;;16.25;100.00
63281;BME280;49406;51.044;3.766;2022-09-09T07:32:13;100593.91;;;16.39;100.00
63281;BME280;49406;51.044;3.766;2022-09-09T07:34:48;100600.67;;;16.54;100.00
63281;BME280;49406;51.044;3.766;2022-09-09T07:37:23;100596.98;;;16.71;100.00
63281;BME280;49406;51.044;3.766;2022-09-09T07:39:57;100596.41;;;16.82;100.00
63281;BME280;49406;51.044;3.766;2022-09-09T07:42:32;100603.91;;;16.87;100.00
63281;BME280;49406;51.044;3.766;2022-09-09T07:45:07;100601.02;;;16.90;100.00
63281;BME280;49406;51.044;3.766;2022-09-09T07:47:42;100603.77;;;16.93;100.00
63281;BME280;49406;51.044;3.766;2022-09-09T07:50:17;100608.00;;;17.02;100.00
63281;BME280;49406;51.044;3.766;2022-09-09T07:52:50;100606.48;;;17.06;100.00
63281;BME280;49406;51.044;3.766;2022-09-09T07:55:25;100607.08;;;17.11;100.00
63281;BME280;49406;51.044;3.766;2022-09-09T07:57:59;100606.35;;;17.20;100.00
63281;BME280;49406;51.044;3.766;2022-09-09T08:00:34;100603.45;;;17.15;100.00
63281;BME280;49406;51.044;3.766;2022-09-09T08:03:09;100607.16;;;16.99;100.00
63281;BME280;49406;51.044;3.766;2022-09-09T08:05:43;100616.39;;;16.81;100.00
63281;BME280;49406;51.044;3.766;2022-09-09T08:08:18;100612.02;;;16.61;100.00
63281;BME280;49406;51.044;3.766;2022-09-09T08:10:52;100621.89;;;16.42;100.00
63281;BME280;49406;51.044;3.766;2022-09-09T08:13:27;100624.29;;;16.28;100.00
63281;BME280;49406;51.044;3.766;2022-09-09T08:16:11;100627.02;;;16.15;100.00
63281;BME280;49406;51.044;3.766;2022-09-09T08:18:46;100631.83;;;16.02;100.00
63281;BME280;49406;51.044;3.766;2022-09-09T08:21:22;100635.70;;;15.90;100.00
63281;BME280;49406;51.044;3.766;2022-09-09T08:23:59;100640.11;;;15.82;100.00
63281;BME280;49406;51.044;3.766;2022-09-09T08:26:33;100642.47;;;15.76;100.00
63281;BME280;49406;51.044;3.766;2022-09-09T08:29:09;100638.85;;;15.72;100.00
63281;BME280;49406;51.044;3.766;2022-09-09T08:31:46;100641.89;;;15.69;100.00
63281;BME280;49406;51.044;3.766;2022-09-09T08:34:21;100638.36;;;15.69;100.00
63281;BME280;49406;51.044;3.766;2022-09-09T08:36:56;100640.70;;;15.67;100.00
63281;BME280;49406;51.044;3.766;2022-09-09T08:39:30;100640.38;;;15.65;100.00
63281;BME280;49406;51.044;3.766;2022-09-09T08:42:23;100650.92;;;15.67;100.00
63281;BME280;49406;51.044;3.766;2022-09-09T08:45:17;100644.24;;;15.66;100.00
63281;BME280;49406;51.044;3.766;2022-09-09T08:48:08;100645.78;;;15.68;100.00
63281;BME280;49406;51.044;3.766;2022-09-09T08:50:50;100642.05;;;15.71;100.00
63281;BME280;49406;51.044;3.766;2022-09-09T08:53:29;100651.63;;;15.77;100.00
63281;BME280;49406;51.044;3.766;2022-09-09T08:56:12;100649.38;;;15.86;100.00
63281;BME280;49406;51.044;3.766;2022-09-09T08:58:50;100651.73;;;15.91;100.00
63281;BME280;49406;51.044;3.766;2022-09-09T09:01:41;100650.95;;;15.97;100.00
63281;BME280;49406;51.044;3.766;2022-09-09T09:04:29;100653.73;;;16.00;100.00
63281;BME280;49406;51.044;3.766;2022-09-09T09:07:17;100655.69;;;15.99;100.00
63281;BME280;49406;51.044;3.766;2022-09-09T09:10:02;100668.16;;;16.01;100.00
63281;BME280;49406;51.044;3.766;2022-09-09T09:12:42;100669.27;;;15.99;100.00
63281;BME280;49406;51.044;3.766;2022-09-09T09:15:23;100669.63;;;15.99;100.00
63281;BME280;49406;51.044;3.766;2022-09-09T09:17:57;100671.30;;;16.03;100.00
63281;BME280;49406;51.044;3.766;2022-09-09T09:20:39;100676.98;;;16.11;100.00
63281;BME280;49406;51.044;3.766;2022-09-09T09:23:22;100670.90;;;16.26;100.00
63281;BME280;49406;51.044;3.766;2022-09-09T09:26:01;100681.67;;;16.44;100.00
63281;BME280;49406;51.044;3.766;2022-09-09T09:28:37;100677.73;;;16.67;100.00
63281;BME280;49406;51.044;3.766;2022-09-09T09:31:14;100684.75;;;16.88;100.00
63281;BME280;49406;51.044;3.766;2022-09-09T09:33:51;100688.80;;;17.06;100.00
63281;BME280;49406;51.044;3.766;2022-09-09T09:36:37;100693.29;;;17.27;99.96
63281;BME280;49406;51.044;3.766;2022-09-09T09:39:24;100686.81;;;17.56;99.29
63281;BME280;49406;51.044;3.766;2022-09-09T09:41:59;100689.05;;;17.89;98.62
63281;BME280;49406;51.044;3.766;2022-09-09T09:44:43;100695.77;;;18.11;94.65
63281;BME280;49406;51.044;3.766;2022-09-09T09:47:19;100697.89;;;18.10;93.42
63281;BME280;49406;51.044;3.766;2022-09-09T09:49:55;100696.48;;;18.03;93.57
63281;BME280;49406;51.044;3.766;2022-09-09T09:52:30;100700.27;;;17.93;93.64
63281;BME280;49406;51.044;3.766;2022-09-09T09:55:11;100702.56;;;17.87;94.76
63281;BME280;49406;51.044;3.766;2022-09-09T09:57:47;100701.04;;;17.84;94.58
63281;BME280;49406;51.044;3.766;2022-09-09T10:00:23;100709.36;;;17.84;95.38
63281;BME280;49406;51.044;3.766;2022-09-09T10:02:59;100706.55;;;17.83;94.84
63281;BME280;49406;51.044;3.766;2022-09-09T10:05:37;100709.25;;;17.81;94.41
63281;BME280;49406;51.044;3.766;2022-09-09T10:08:19;100712.08;;;17.80;96.07
63281;BME280;49406;51.044;3.766;2022-09-09T10:11:04;100713.83;;;17.82;95.15
63281;BME280;49406;51.044;3.766;2022-09-09T10:13:47;100715.50;;;17.78;94.58
63281;BME280;49406;51.044;3.766;2022-09-09T10:16:35;100720.54;;;17.74;95.04
63281;BME280;49406;51.044;3.766;2022-09-09T10:19:15;100723.04;;;17.73;94.74
63281;BME280;49406;51.044;3.766;2022-09-09T10:22:18;100723.73;;;17.73;93.45
63281;BME280;49406;51.044;3.766;2022-09-09T10:25:18;100732.10;;;17.78;93.00
63281;BME280;49406;51.044;3.766;2022-09-09T10:28:08;100735.61;;;17.87;93.35
63281;BME280;49406;51.044;3.766;2022-09-09T10:30:53;100746.30;;;17.99;93.28
63281;BME280;49406;51.044;3.766;2022-09-09T10:33:35;100747.33;;;18.01;91.66
63281;BME280;49406;51.044;3.766;2022-09-09T10:36:16;100745.77;;;17.91;90.19
63281;BME280;49406;51.044;3.766;2022-09-09T10:38:56;100752.68;;;17.91;92.04
63281;BME280;49406;51.044;3.766;2022-09-09T10:41:44;100741.31;;;17.93;91.47
63281;BME280;49406;51.044;3.766;2022-09-09T10:44:34;100746.72;;;18.04;93.55
63281;BME280;49406;51.044;3.766;2022-09-09T10:47:26;100733.44;;;18.19;90.49
63281;BME280;49406;51.044;3.766;2022-09-09T10:50:07;100732.95;;;18.31;89.72
63281;BME280;49406;51.044;3.766;2022-09-09T10:52:53;100737.98;;;18.49;88.66
63281;BME280;49406;51.044;3.766;2022-09-09T10:55:37;100734.95;;;18.64;88.73
63281;BME280;49406;51.044;3.766;2022-09-09T10:58:17;100735.52;;;18.69;86.69
63281;BME280;49406;51.044;3.766;2022-09-09T11:00:57;100739.11;;;18.68;86.82
63281;BME280;49406;51.044;3.766;2022-09-09T11:03:39;100740.48;;;18.69;87.43
63281;BME280;49406;51.044;3.766;2022-09-09T11:06:16;100740.49;;;18.69;86.31
63281;BME280;49406;51.044;3.766;2022-09-09T11:08:53;100741.25;;;18.68;86.50
63281;BME280;49406;51.044;3.766;2022-09-09T11:11:32;100744.75;;;18.75;86.63
63281;BME280;49406;51.044;3.766;2022-09-09T11:14:14;100749.52;;;18.82;85.46
63281;BME280;49406;51.044;3.766;2022-09-09T11:16:52;100749.15;;;18.83;84.91
63281;BME280;49406;51.044;3.766;2022-09-09T11:19:30;100751.36;;;18.99;85.68
63281;BME280;49406;51.044;3.766;2022-09-09T11:22:14;100744.88;;;19.27;84.73
63281;BME280;49406;51.044;3.766;2022-09-09T11:24:52;100754.02;;;19.66;83.34
63281;BME280;49406;51.044;3.766;2022-09-09T11:27:31;100753.64;;;19.90;80.42
63281;BME280;49406;51.044;3.766;2022-09-09T11:30:23;100753.41;;;19.96;79.28
63281;BME280;49406;51.044;3.766;2022-09-09T11:33:22;100753.21;;;19.97;78.22
63281;BME280;49406;51.044;3.766;2022-09-09T11:36:16;100758.57;;;20.13;79.11
63281;BME280;49406;51.044;3.766;2022-09-09T11:39:00;100760.25;;;20.43;79.19
63281;BME280;49406;51.044;3.766;2022-09-09T11:41:37;100746.36;;;20.69;76.56
63281;BME280;49406;51.044;3.766;2022-09-09T11:44:18;100751.59;;;20.73;75.22
63281;BME280;49406;51.044;3.766;2022-09-09T11:46:53;100749.61;;;20.69;75.50
63281;BME280;49406;51.044;3.766;2022-09-09T11:49:30;100758.08;;;20.64;75.19
63281;BME280;49406;51.044;3.766;2022-09-09T11:52:23;100758.27;;;20.59;74.90
63281;BME280;49406;51.044;3.766;2022-09-09T11:55:10;100761.64;;;20.39;74.99
63281;BME280;49406;51.044;3.766;2022-09-09T11:57:45;100763.44;;;20.16;76.64
63281;BME280;49406;51.044;3.766;2022-09-09T12:00:37;100769.61;;;20.01;76.46
63281;BME280;49406;51.044;3.766;2022-09-09T12:03:34;100773.17;;;19.84;76.76
63281;BME280;49406;51.044;3.766;2022-09-09T12:06:17;100772.77;;;19.96;77.88
63281;BME280;49406;51.044;3.766;2022-09-09T12:08:55;100778.89;;;20.10;77.58
63281;BME280;49406;51.044;3.766;2022-09-09T12:11:32;100778.58;;;20.25;77.57
63281;BME280;49406;51.044;3.766;2022-09-09T12:14:21;100776.64;;;20.35;76.41
63281;BME280;49406;51.044;3.766;2022-09-09T12:16:56;100775.95;;;20.46;77.46
63281;BME280;49406;51.044;3.766;2022-09-09T12:19:43;100784.71;;;20.71;76.83
63281;BME280;49406;51.044;3.766;2022-09-09T12:22:26;100778.85;;;20.76;74.86
63281;BME280;49406;51.044;3.766;2022-09-09T12:25:14;100786.85;;;20.65;75.72
63281;BME280;49406;51.044;3.766;2022-09-09T12:28:00;100784.23;;;20.59;75.70
63281;BME280;49406;51.044;3.766;2022-09-09T12:30:43;100785.13;;;20.63;76.44
63281;BME280;49406;51.044;3.766;2022-09-09T12:33:22;100776.19;;;20.81;75.22
63281;BME280;49406;51.044;3.766;2022-09-09T12:35:58;100776.77;;;20.99;74.95
63281;BME280;49406;51.044;3.766;2022-09-09T12:38:36;100774.42;;;21.20;73.68
63281;BME280;49406;51.044;3.766;2022-09-09T12:41:21;100773.48;;;21.22;72.82
63281;BME280;49406;51.044;3.766;2022-09-09T12:44:08;100775.08;;;21.37;72.21
63281;BME280;49406;51.044;3.766;2022-09-09T12:46:44;100768.44;;;21.38;72.56
63281;BME280;49406;51.044;3.766;2022-09-09T12:49:30;100767.88;;;21.53;72.26
63281;BME280;49406;51.044;3.766;2022-09-09T12:52:06;100771.23;;;21.49;71.85
63281;BME280;49406;51.044;3.766;2022-09-09T12:54:45;100774.96;;;21.40;72.67
63281;BME280;49406;51.044;3.766;2022-09-09T12:57:21;100783.88;;;21.24;72.76
63281;BME280;49406;51.044;3.766;2022-09-09T13:00:11;100790.84;;;21.03;72.83
63281;BME280;49406;51.044;3.766;2022-09-09T13:05:25;100795.88;;;20.61;75.82
63281;BME280;49406;51.044;3.766;2022-09-09T13:08:05;100794.55;;;20.48;76.34
63281;BME280;49406;51.044;3.766;2022-09-09T13:10:46;100791.30;;;20.32;76.81
63281;BME280;49406;51.044;3.766;2022-09-09T13:13:22;100792.22;;;20.09;79.11
63281;BME280;49406;51.044;3.766;2022-09-09T13:15:59;100786.50;;;19.88;80.91
63281;BME280;49406;51.044;3.766;2022-09-09T13:18:37;100786.85;;;19.72;83.13
63281;BME280;49406;51.044;3.766;2022-09-09T13:21:14;100786.79;;;19.68;84.10
63281;BME280;49406;51.044;3.766;2022-09-09T13:23:52;100790.52;;;19.68;84.68
63281;BME280;49406;51.044;3.766;2022-09-09T13:26:27;100795.09;;;19.80;84.86
63281;BME280;49406;51.044;3.766;2022-09-09T13:29:18;100788.63;;;20.05;81.91
63281;BME280;49406;51.044;3.766;2022-09-09T13:31:53;100788.73;;;20.40;80.71
63281;BME280;49406;51.044;3.766;2022-09-09T13:34:30;100789.19;;;20.74;78.01
63281;BME280;49406;51.044;3.766;2022-09-09T13:37:04;100784.39;;;21.10;75.03
63281;BME280;49406;51.044;3.766;2022-09-09T13:39:40;100784.52;;;21.21;72.48
63281;BME280;49406;51.044;3.766;2022-09-09T13:42:24;100784.77;;;21.39;71.86
63281;BME280;49406;51.044;3.766;2022-09-09T13:45:00;100788.46;;;21.54;70.74